createdAt,value
2022-10-13T00:00:46.963Z,101469.28
2022-10-13T00:03:32.776Z,101469.03
2022-10-13T00:06:24.514Z,101471.63
2022-10-13T00:09:10.202Z,101476.66
2022-10-13T00:11:58.786Z,101475.75
2022-10-13T00:14:44.294Z,101480.06
2022-10-13T00:17:29.592Z,101476.66
2022-10-13T00:20:14.980Z,101480.66
2022-10-13T00:23:00.504Z,101480.22
2022-10-13T00:25:49.014Z,101466.94
2022-10-13T00:28:34.986Z,101472.31
2022-10-13T00:31:23.091Z,101475.72
2022-10-13T00:34:09.292Z,101479.34
2022-10-13T00:36:54.476Z,101477.69
2022-10-13T00:39:39.904Z,101473.50
2022-10-13T00:42:27.262Z,101477.03
2022-10-13T00:45:27.243Z,101482.41
2022-10-13T00:48:13.479Z,101468.91
2022-10-13T00:50:59.016Z,101459.16
2022-10-13T00:53:47.619Z,101467.41
2022-10-13T00:56:35.712Z,101467.19
2022-10-13T00:59:27.473Z,101468.63
2022-10-13T01:02:12.983Z,101464.09
2022-10-13T01:04:59.497Z,101463.94
2022-10-13T01:07:48.913Z,101445.59
2022-10-13T01:10:55.922Z,101448.59
2022-10-13T01:13:56.400Z,101462.03
2022-10-13T01:17:00.032Z,101464.50
2022-10-13T01:20:30.579Z,101477.03
2022-10-13T01:23:47.111Z,101470.78
2022-10-13T01:27:09.635Z,101475.25
2022-10-13T01:30:04.924Z,101472.50
2022-10-13T01:33:01.228Z,101471.78
2022-10-13T01:36:05.594Z,101460.13
2022-10-13T01:39:06.865Z,101461.44
2022-10-13T01:41:57.301Z,101471.97
2022-10-13T01:44:49.313Z,101470.22
2022-10-13T01:47:37.511Z,101463.13
2022-10-13T01:50:23.571Z,101461.06
2022-10-13T01:53:12.001Z,101466.09
2022-10-13T01:55:59.914Z,101468.22
2022-10-13T01:58:46.435Z,101474.88
2022-10-13T02:01:35.026Z,101476.66
2022-10-13T02:04:20.434Z,101471.97
2022-10-13T02:07:16.073Z,101475.00
2022-10-13T02:10:13.607Z,101469.47
2022-10-13T02:13:05.139Z,101458.41
2022-10-13T02:15:55.491Z,101452.63
2022-10-13T02:18:41.498Z,101455.03
2022-10-13T02:21:28.787Z,101441.81
2022-10-13T02:24:16.270Z,101443.69
2022-10-13T02:27:02.251Z,101444.16
2022-10-13T02:29:52.591Z,101440.72
2022-10-13T02:32:38.955Z,101437.66
2022-10-13T02:35:24.205Z,101430.63
2022-10-13T02:38:10.694Z,101425.03
2022-10-13T02:40:56.372Z,101422.06
2022-10-13T02:43:42.772Z,101416.00
2022-10-13T02:46:28.371Z,101420.66
2022-10-13T02:49:13.915Z,101416.59
2022-10-13T02:51:59.178Z,101420.59
2022-10-13T02:54:44.722Z,101423.56
2022-10-13T02:57:30.378Z,101419.75
2022-10-13T03:00:17.846Z,101416.00
2022-10-13T03:03:03.752Z,101410.78
2022-10-13T03:05:49.397Z,101412.09
2022-10-13T03:08:35.970Z,101402.78
2022-10-13T03:11:21.738Z,101397.75
2022-10-13T03:14:07.085Z,101388.63
2022-10-13T03:16:52.398Z,101383.41
2022-10-13T03:19:38.709Z,101387.13
2022-10-13T03:22:24.479Z,101378.97
2022-10-13T03:25:10.724Z,101390.47
2022-10-13T03:27:59.339Z,101389.19
2022-10-13T03:30:44.814Z,101398.81
2022-10-13T03:33:30.419Z,101402.88
2022-10-13T03:36:16.353Z,101408.16
2022-10-13T03:39:04.050Z,101405.97
2022-10-13T03:41:50.022Z,101411.53
2022-10-13T03:44:35.614Z,101416.69
2022-10-13T03:47:21.060Z,101422.03
2022-10-13T03:50:07.198Z,101438.47
2022-10-13T03:52:52.868Z,101438.06
2022-10-13T03:55:38.266Z,101439.69
2022-10-13T03:58:25.347Z,101427.25
2022-10-13T04:01:14.304Z,101408.25
2022-10-13T04:04:02.569Z,101399.22
2022-10-13T04:06:47.997Z,101384.13
2022-10-13T04:09:33.752Z,101374.78
2022-10-13T04:12:21.095Z,101371.22
2022-10-13T04:15:07.835Z,101353.78
2022-10-13T04:17:53.117Z,101345.47
2022-10-13T04:20:39.845Z,101352.84
2022-10-13T04:23:25.663Z,101351.63
2022-10-13T04:26:20.609Z,101345.59
2022-10-13T04:29:08.066Z,101342.28
2022-10-13T04:31:53.775Z,101333.50
2022-10-13T04:34:39.278Z,101335.25
2022-10-13T04:37:24.875Z,101330.69
2022-10-13T04:40:10.949Z,101331.41
2022-10-13T04:42:56.531Z,101343.16
2022-10-13T04:45:42.058Z,101347.13
2022-10-13T04:48:27.991Z,101349.38
2022-10-13T04:51:19.995Z,101352.06
2022-10-13T04:54:05.731Z,101347.81
2022-10-13T04:56:51.106Z,101342.25
2022-10-13T04:59:36.374Z,101345.34
2022-10-13T05:02:22.612Z,101350.44
2022-10-13T05:05:08.557Z,101349.16
2022-10-13T05:07:54.281Z,101344.91
2022-10-13T05:10:39.673Z,101349.16
2022-10-13T05:13:26.616Z,101343.00
2022-10-13T05:16:18.299Z,101346.47
2022-10-13T05:19:04.035Z,101354.69
2022-10-13T05:21:49.565Z,101350.88
2022-10-13T05:24:38.652Z,101347.78
2022-10-13T05:27:24.255Z,101344.56
2022-10-13T05:30:10.387Z,101341.53
2022-10-13T05:32:55.705Z,101343.81
2022-10-13T05:35:41.934Z,101347.94
2022-10-13T05:38:27.318Z,101327.16
2022-10-13T05:41:14.654Z,101327.63
2022-10-13T05:44:02.606Z,101325.00
2022-10-13T05:46:47.974Z,101320.69
2022-10-13T05:49:36.466Z,101329.06
2022-10-13T05:52:24.501Z,101330.06
2022-10-13T05:55:15.154Z,101330.66
2022-10-13T05:58:02.412Z,101328.06
2022-10-13T06:00:49.062Z,101325.44
2022-10-13T06:03:35.567Z,101323.25
2022-10-13T06:06:25.806Z,101312.38
2022-10-13T06:09:15.434Z,101303.91
2022-10-13T06:12:01.964Z,101301.94
2022-10-13T06:14:47.666Z,101297.69
2022-10-13T06:17:37.331Z,101281.31
2022-10-13T06:20:23.108Z,101272.81
2022-10-13T06:23:08.763Z,101275.38
2022-10-13T06:25:54.690Z,101268.59
2022-10-13T06:28:40.405Z,101271.91
2022-10-13T06:31:26.421Z,101275.38
2022-10-13T06:34:12.682Z,101277.25
2022-10-13T06:37:02.593Z,101273.38
2022-10-13T06:39:48.076Z,101275.16
2022-10-13T06:42:34.761Z,101273.44
2022-10-13T06:45:29.530Z,101264.31
2022-10-13T06:48:15.002Z,101268.16
2022-10-13T06:51:09.147Z,101295.63
2022-10-13T06:53:57.042Z,101299.72
2022-10-13T06:56:44.012Z,101311.06
2022-10-13T06:59:29.492Z,101314.84
2022-10-13T07:02:14.979Z,101310.13
2022-10-13T07:05:00.632Z,101306.34
2022-10-13T07:07:46.520Z,101314.81
2022-10-13T07:10:31.870Z,101317.34
2022-10-13T07:13:17.392Z,101305.66
2022-10-13T07:16:04.447Z,101297.25
2022-10-13T07:18:50.885Z,101314.44
2022-10-13T07:21:36.933Z,101319.25
2022-10-13T07:24:22.938Z,101315.31
2022-10-13T07:27:08.303Z,101323.31
2022-10-13T07:29:53.743Z,101325.59
2022-10-13T07:32:42.232Z,101328.06
2022-10-13T07:35:30.669Z,101317.69
2022-10-13T07:38:16.804Z,101312.03
2022-10-13T07:41:08.817Z,101310.69
2022-10-13T07:43:55.738Z,101309.78
2022-10-13T07:46:41.055Z,101300.59
2022-10-13T07:49:26.446Z,101309.56
2022-10-13T07:52:12.273Z,101306.34
2022-10-13T07:54:57.778Z,101315.88
2022-10-13T07:57:43.051Z,101321.72
2022-10-13T08:00:28.952Z,101312.66
2022-10-13T08:03:14.157Z,101306.84
2022-10-13T08:06:00.674Z,101314.66
2022-10-13T08:08:46.434Z,101315.09
2022-10-13T08:11:35.419Z,101315.66
2022-10-13T08:14:21.456Z,101303.09
2022-10-13T08:17:06.945Z,101304.50
2022-10-13T08:19:52.320Z,101309.91
2022-10-13T08:22:38.305Z,101316.47
2022-10-13T08:25:23.515Z,101323.94
2022-10-13T08:28:19.014Z,101332.94
2022-10-13T08:31:04.641Z,101335.09
2022-10-13T08:33:51.330Z,101334.59
2022-10-13T08:36:37.830Z,101342.06
2022-10-13T08:39:24.639Z,101337.47
2022-10-13T08:42:22.492Z,101329.31
2022-10-13T08:45:36.316Z,101336.59
2022-10-13T08:48:24.718Z,101350.22
2022-10-13T08:51:13.262Z,101343.63
2022-10-13T08:54:00.032Z,101341.47
2022-10-13T08:56:50.093Z,101340.34
2022-10-13T08:59:35.666Z,101327.81
2022-10-13T09:02:31.922Z,101319.56
2022-10-13T09:05:27.984Z,101321.63
2022-10-13T09:08:21.285Z,101321.06
2022-10-13T09:11:06.839Z,101324.78
2022-10-13T09:13:58.181Z,101313.81
2022-10-13T09:16:45.353Z,101318.38
2022-10-13T09:19:36.744Z,101318.59
2022-10-13T09:22:30.260Z,101316.28
2022-10-13T09:25:20.576Z,101308.91
2022-10-13T09:28:15.900Z,101304.13
2022-10-13T09:31:25.603Z,101310.09
2022-10-13T09:34:20.121Z,101310.84
2022-10-13T09:37:10.380Z,101311.22
2022-10-13T09:40:19.722Z,101310.66
2022-10-13T09:43:20.648Z,101304.84
2022-10-13T09:46:28.668Z,101307.72
2022-10-13T09:49:40.062Z,101304.41
2022-10-13T09:52:25.576Z,101294.09
2022-10-13T09:55:34.102Z,101282.03
2022-10-13T09:58:28.487Z,101273.44
2022-10-13T10:01:23.262Z,101270.84
2022-10-13T10:04:14.646Z,101271.72
2022-10-13T10:07:09.918Z,101256.06
2022-10-13T10:10:01.821Z,101235.25
2022-10-13T10:12:47.797Z,101217.00
2022-10-13T10:15:49.803Z,101217.00
2022-10-13T10:18:45.258Z,101206.56
2022-10-13T10:21:43.979Z,101202.28
2022-10-13T10:24:53.746Z,101198.84
2022-10-13T10:27:46.164Z,101177.09
2022-10-13T10:30:37.935Z,101168.41
2022-10-13T10:33:43.113Z,101154.50
2022-10-13T10:37:06.450Z,101157.16
2022-10-13T10:40:01.028Z,101152.78
2022-10-13T10:43:13.346Z,101150.22
2022-10-13T10:45:59.591Z,101141.50
2022-10-13T10:48:50.466Z,101135.38
2022-10-13T10:51:38.095Z,101126.69
2022-10-13T10:55:18.538Z,101131.88
2022-10-13T10:58:20.727Z,101131.03
2022-10-13T11:01:16.376Z,101126.59
2022-10-13T11:04:40.626Z,101126.63
2022-10-13T11:07:26.156Z,101112.63
2022-10-13T11:10:16.411Z,101102.13
2022-10-13T11:13:02.075Z,101099.47
2022-10-13T11:15:48.062Z,101096.81
2022-10-13T11:18:55.078Z,101101.03
2022-10-13T11:22:16.008Z,101104.44
2022-10-13T11:25:43.331Z,101096.38
2022-10-13T11:28:41.069Z,101095.34
2022-10-13T11:31:47.196Z,101100.50
2022-10-13T11:34:33.044Z,101095.13
2022-10-13T11:37:18.810Z,101080.91
2022-10-13T11:40:22.891Z,101066.72
2022-10-13T11:43:27.115Z,101070.09
2022-10-13T11:46:19.672Z,101077.88
2022-10-13T11:49:40.681Z,101083.03
2022-10-13T11:52:59.856Z,101083.91
2022-10-13T11:55:55.701Z,101084.72
2022-10-13T11:58:42.763Z,101087.22
2022-10-13T12:01:28.726Z,101093.34
2022-10-13T12:04:15.791Z,101086.31
2022-10-13T12:07:04.747Z,101090.72
2022-10-13T12:09:52.339Z,101091.50
2022-10-13T12:12:48.037Z,101088.88
2022-10-13T12:15:43.561Z,101092.22
2022-10-13T12:18:34.851Z,101103.50
2022-10-13T12:21:22.666Z,101099.25
2022-10-13T12:24:10.070Z,101098.34
2022-10-13T12:26:57.043Z,101099.94
2022-10-13T12:29:43.636Z,101083.84
2022-10-13T12:32:32.259Z,101081.88
2022-10-13T12:35:19.315Z,101077.59
2022-10-13T12:38:21.170Z,101060.25
2022-10-13T12:41:06.672Z,101054.03
2022-10-13T12:43:53.391Z,101049.47
2022-10-13T12:46:46.076Z,101031.69
2022-10-13T12:49:36.300Z,101026.03
2022-10-13T12:52:25.376Z,101020.31
2022-10-13T12:55:19.468Z,101010.53
2022-10-13T12:58:04.934Z,101014.13
2022-10-13T13:01:09.477Z,101007.00
2022-10-13T13:04:27.682Z,100999.88
2022-10-13T13:07:35.701Z,100994.03
2022-10-13T13:10:21.433Z,100986.47
2022-10-13T13:13:15.241Z,100989.94
2022-10-13T13:16:21.866Z,100985.22
2022-10-13T13:19:22.798Z,100978.94
2022-10-13T13:22:08.905Z,100972.28
2022-10-13T13:24:54.319Z,100961.66
2022-10-13T13:27:40.765Z,100971.59
2022-10-13T13:30:26.786Z,100973.34
2022-10-13T13:35:58.058Z,100985.69
2022-10-13T13:38:44.374Z,100988.16
2022-10-13T13:41:31.357Z,100995.03
2022-10-13T13:44:16.882Z,100992.31
2022-10-13T13:47:03.043Z,100994.00
2022-10-13T13:49:50.420Z,100988.84
2022-10-13T13:52:35.963Z,100992.31
2022-10-13T13:55:22.641Z,100980.03
2022-10-13T13:58:09.453Z,100969.81
2022-10-13T14:00:55.496Z,100962.56
2022-10-13T14:03:41.323Z,100952.69
2022-10-13T14:06:27.891Z,100951.84
2022-10-13T14:09:13.689Z,100946.56
2022-10-13T14:12:00.108Z,100939.38
2022-10-13T14:14:45.748Z,100933.34
2022-10-13T14:17:33.067Z,100927.34
2022-10-13T14:20:19.904Z,100931.31
2022-10-13T14:23:05.642Z,100921.81
2022-10-13T14:25:51.528Z,100908.81
2022-10-13T14:28:45.518Z,100913.94
2022-10-13T14:31:32.429Z,100907.59
2022-10-13T14:34:19.165Z,100902.50
2022-10-13T14:37:04.997Z,100899.63
2022-10-13T14:39:50.790Z,100895.19
2022-10-13T14:42:36.574Z,100898.22
2022-10-13T14:45:23.359Z,100894.81
2022-10-13T14:48:09.046Z,100895.44
2022-10-13T14:50:54.870Z,100896.81
2022-10-13T14:53:43.209Z,100902.63
2022-10-13T14:56:30.458Z,100903.16
2022-10-13T14:59:16.770Z,100910.03
2022-10-13T15:02:03.322Z,100919.25
2022-10-13T15:04:48.673Z,100917.09
2022-10-13T15:07:36.854Z,100915.50
2022-10-13T15:10:26.062Z,100913.94
2022-10-13T15:13:12.387Z,100902.75
2022-10-13T15:16:02.648Z,100908.84
2022-10-13T15:18:49.192Z,100908.78
2022-10-13T15:21:34.999Z,100903.38
2022-10-13T15:24:21.724Z,100898.03
2022-10-13T15:27:10.796Z,100893.53
2022-10-13T15:29:56.300Z,100898.81
2022-10-13T15:32:41.955Z,100891.84
2022-10-13T15:35:31.476Z,100896.22
2022-10-13T15:38:18.667Z,100890.22
2022-10-13T15:41:07.051Z,100887.66
2022-10-13T15:43:53.047Z,100878.94
2022-10-13T15:46:49.158Z,100878.97
2022-10-13T15:49:45.221Z,100879.00
2022-10-13T15:52:34.635Z,100880.75
2022-10-13T15:55:20.953Z,100870.13
2022-10-13T15:58:11.350Z,100872.72
2022-10-13T16:00:59.175Z,100863.97
2022-10-13T16:03:45.352Z,100866.63
2022-10-13T16:06:33.673Z,100857.94
2022-10-13T16:09:19.502Z,100858.78
2022-10-13T16:12:05.594Z,100853.47
2022-10-13T16:14:52.198Z,100861.25
2022-10-13T16:17:38.142Z,100859.66
2022-10-13T16:20:23.832Z,100855.44
2022-10-13T16:23:09.368Z,100860.94
2022-10-13T16:25:54.839Z,100858.47
2022-10-13T16:28:40.548Z,100857.69
2022-10-13T16:31:26.434Z,100858.75
2022-10-13T16:34:11.933Z,100870.25
2022-10-13T16:36:57.205Z,100866.81
2022-10-13T16:39:44.621Z,100857.28
2022-10-13T16:42:33.252Z,100860.06
2022-10-13T16:45:21.522Z,100861.94
2022-10-13T16:48:16.142Z,100871.66
2022-10-13T16:51:06.714Z,100864.72
2022-10-13T16:53:55.512Z,100863.88
2022-10-13T16:56:43.118Z,100878.78
2022-10-13T16:59:28.913Z,100874.50
2022-10-13T17:02:15.485Z,100882.34
2022-10-13T17:05:01.251Z,100875.31
2022-10-13T17:07:46.836Z,100879.66
2022-10-13T17:10:33.263Z,100877.03
2022-10-13T17:13:19.585Z,100880.44
2022-10-13T17:16:05.271Z,100874.34
2022-10-13T17:18:50.544Z,100872.56
2022-10-13T17:21:37.015Z,100868.19
2022-10-13T17:24:24.422Z,100874.34
2022-10-13T17:27:10.228Z,100876.97
2022-10-13T17:29:56.358Z,100879.59
2022-10-13T17:32:42.136Z,100885.75
2022-10-13T17:35:27.677Z,100877.00
2022-10-13T17:38:15.583Z,100882.25
2022-10-13T17:41:02.841Z,100886.63
2022-10-13T17:43:49.939Z,100892.72
2022-10-13T17:46:38.076Z,100894.47
2022-10-13T17:49:24.813Z,100898.00
2022-10-13T17:52:10.312Z,100903.28
2022-10-13T17:54:56.060Z,100899.88
2022-10-13T17:57:42.377Z,100920.00
2022-10-13T18:00:28.045Z,100927.13
2022-10-13T18:03:13.607Z,100931.59
2022-10-13T18:05:59.070Z,100929.06
2022-10-13T18:08:44.642Z,100934.34
2022-10-13T18:11:30.014Z,100941.44
2022-10-13T18:14:15.889Z,100937.16
2022-10-13T18:17:03.465Z,100940.69
2022-10-13T18:19:50.995Z,100945.13
2022-10-13T18:22:36.571Z,100946.06
2022-10-13T18:25:24.534Z,100953.13
2022-10-13T18:28:09.994Z,100948.78
2022-10-13T18:30:55.747Z,100954.03
2022-10-13T18:33:41.978Z,100953.19
2022-10-13T18:36:35.555Z,100957.59
2022-10-13T18:39:28.055Z,100952.38
2022-10-13T18:42:13.887Z,100943.72
2022-10-13T18:44:59.719Z,100953.31
2022-10-13T18:47:45.453Z,100942.88
2022-10-13T18:50:31.463Z,100941.16
2022-10-13T18:53:18.814Z,100941.19
2022-10-13T18:56:10.616Z,100937.69
2022-10-13T18:58:59.874Z,100935.09
2022-10-13T19:01:46.177Z,100933.38
2022-10-13T19:04:32.500Z,100929.03
2022-10-13T19:07:19.308Z,100937.72
2022-10-13T19:10:06.685Z,100930.78
2022-10-13T19:12:52.766Z,100932.50
2022-10-13T19:15:39.942Z,100929.06
2022-10-13T19:18:25.875Z,100933.41
2022-10-13T19:21:12.440Z,100939.50
2022-10-13T19:23:59.901Z,100935.16
2022-10-13T19:26:45.844Z,100938.63
2022-10-13T19:29:33.276Z,100949.94
2022-10-13T19:32:20.620Z,100943.84
2022-10-13T19:35:06.484Z,100945.56
2022-10-13T19:37:52.015Z,100954.28
2022-10-13T19:40:42.423Z,100952.53
2022-10-13T19:43:27.857Z,100954.28
2022-10-13T19:46:14.077Z,100955.16
2022-10-13T19:49:00.695Z,100958.63
2022-10-13T19:51:47.478Z,100962.09
2022-10-13T19:54:36.088Z,100951.69
2022-10-13T19:57:22.369Z,100950.78
2022-10-13T20:00:09.167Z,100950.78
2022-10-13T20:02:58.294Z,100945.59
2022-10-13T20:05:44.268Z,100938.63
2022-10-13T20:08:30.137Z,100938.63
2022-10-13T20:11:23.410Z,100926.44
2022-10-13T20:14:09.945Z,100912.50
2022-10-13T20:16:58.444Z,100912.53
2022-10-13T20:19:44.573Z,100911.63
2022-10-13T20:22:30.212Z,100905.56
2022-10-13T20:25:19.693Z,100922.97
2022-10-13T20:28:06.267Z,100911.63
2022-10-13T20:30:51.987Z,100914.25
2022-10-13T20:33:37.877Z,100907.31
2022-10-13T20:36:25.397Z,100911.63
2022-10-13T20:39:10.935Z,100898.59
2022-10-13T20:41:56.254Z,100912.50
2022-10-13T20:44:42.272Z,100914.25
2022-10-13T20:47:28.561Z,100909.91
2022-10-13T20:50:14.685Z,100904.69
2022-10-13T20:53:00.055Z,100903.81
2022-10-13T20:55:54.645Z,100902.09
2022-10-13T20:58:40.775Z,100893.34
2022-10-13T21:01:26.558Z,100888.16
2022-10-13T21:04:12.368Z,100891.63
2022-10-13T21:06:57.744Z,100887.28
2022-10-13T21:09:43.128Z,100882.06
2022-10-13T21:12:28.695Z,100881.19
2022-10-13T21:15:14.741Z,100880.28
2022-10-13T21:18:00.217Z,100887.22
2022-10-13T21:20:45.484Z,100879.41
2022-10-13T21:23:30.884Z,100888.13
2022-10-13T21:26:21.359Z,100895.13
2022-10-13T21:29:07.645Z,100892.50
2022-10-13T21:31:53.441Z,100888.16
2022-10-13T21:34:38.910Z,100897.72
2022-10-13T21:37:24.708Z,100903.81
2022-10-13T21:40:10.638Z,100901.19
2022-10-13T21:42:56.499Z,100901.19
2022-10-13T21:45:42.546Z,100902.06
2022-10-13T21:48:27.942Z,100895.94
2022-10-13T21:51:18.610Z,100890.72
2022-10-13T21:54:11.974Z,100886.38
2022-10-13T21:56:57.660Z,100873.31
2022-10-13T21:59:43.105Z,100868.97
2022-10-13T22:02:28.765Z,100882.03
2022-10-13T22:05:14.411Z,100889.81
2022-10-13T22:08:00.174Z,100882.00
2022-10-13T22:10:45.508Z,100874.16
2022-10-13T22:13:30.932Z,100881.09
2022-10-13T22:16:22.429Z,100870.66
2022-10-13T22:19:07.945Z,100875.84
2022-10-13T22:21:54.253Z,100864.53
2022-10-13T22:24:39.948Z,100860.16
2022-10-13T22:27:25.864Z,100866.19
2022-10-13T22:30:12.237Z,100875.75
2022-10-13T22:32:57.420Z,100879.25
2022-10-13T22:35:43.003Z,100873.13
2022-10-13T22:38:28.667Z,100871.34
2022-10-13T22:41:16.860Z,100868.66
2022-10-13T22:44:04.163Z,100864.28
2022-10-13T22:46:49.506Z,100869.44
2022-10-13T22:49:34.696Z,100864.94
2022-10-13T22:52:22.109Z,100871.81
2022-10-13T22:55:10.024Z,100863.06
2022-10-13T22:57:56.522Z,100855.09
2022-10-13T23:00:41.887Z,100860.13
2022-10-13T23:03:27.247Z,100853.19
2022-10-13T23:06:20.477Z,100843.56
2022-10-13T23:09:09.370Z,100842.59
2022-10-13T23:11:59.651Z,100838.09
2022-10-13T23:14:46.404Z,100838.03
2022-10-13T23:17:31.879Z,100830.13
2022-10-13T23:20:17.475Z,100823.22
2022-10-13T23:23:03.140Z,100827.53
2022-10-13T23:25:48.620Z,100820.53
2022-10-13T23:28:35.049Z,100814.34
2022-10-13T23:31:20.999Z,100819.50
2022-10-13T23:34:06.415Z,100812.47
2022-10-13T23:36:52.036Z,100806.22
2022-10-13T23:39:37.457Z,100807.75
2022-10-13T23:42:22.960Z,100810.28
2022-10-13T23:45:09.128Z,100804.91
2022-10-13T23:47:54.669Z,100800.41
2022-10-13T23:50:40.748Z,100801.13
2022-10-13T23:53:26.070Z,100794.06
2022-10-13T23:56:12.571Z,100795.00
2022-10-13T23:58:58.250Z,100793.22
